Time;durP1;ratioP1;P1;durP2;ratioP2;P2;SDS_P1;SDS_P2;PMS_P1;PMS_P2;Temp;Humidity;BMP_temperature;BMP_pressure;BME280_temperature;BME280_humidity;BME280_pressure;Samples;Min_cycle;Max_cycle;Signal;HPM_P1;HPM_P2
2023/02/14 04:32:18;;;;;;;;;89.25;78.25;;;;;;;;5097808;22;45463;-62
2023/02/14 04:34:44;;;;;;;;;90.50;76.25;;;;;;;;4996484;28;46010;-62
2023/02/14 04:37:09;;;;;;;;;88.25;68.50;;;;;;;;5001355;28;45530;-62
2023/02/14 04:39:35;;;;;;;;;89.75;74.00;;;;;;;;4998926;28;45751;-63
2023/02/14 04:42:01;;;;;;;;;88.50;72.25;;;;;;;;5005691;28;45287;-62
2023/02/14 04:44:26;;;;;;;;;95.25;75.50;;;;;;;;5001317;28;46115;-62
2023/02/14 04:46:51;;;;;;;;;90.00;73.50;;;;;;;;4999648;28;45434;-62
2023/02/14 04:49:17;;;;;;;;;91.75;74.75;;;;;;;;5001850;28;45570;-61
2023/02/14 04:51:42;;;;;;;;;88.50;75.25;;;;;;;;5006018;28;45269;-62
2023/02/14 04:54:08;;;;;;;;;89.50;77.25;;;;;;;;4999480;28;45417;-62
2023/02/14 04:56:33;;;;;;;;;88.25;71.25;;;;;;;;4999725;28;45437;-62
2023/02/14 04:58:58;;;;;;;;;93.25;73.25;;;;;;;;5004097;28;45350;-62
2023/02/14 05:01:23;;;;;;;;;93.25;71.75;;;;;;;;5003187;28;45375;-62
2023/02/14 05:03:48;;;;;;;;;90.00;74.50;;;;;;;;4999232;28;45345;-62
2023/02/14 05:06:14;;;;;;;;;90.50;73.50;;;;;;;;4998863;28;45375;-62
2023/02/14 05:08:39;;;;;;;;;90.75;76.25;;;;;;;;4997476;28;45429;-62
2023/02/14 05:11:04;;;;;;;;;89.00;70.50;;;;;;;;5005370;28;45495;-62
2023/02/14 05:13:30;;;;;;;;;88.25;73.25;;;;;;;;4999763;28;46133;-63
2023/02/14 05:15:56;;;;;;;;;86.75;68.75;;;;;;;;4997904;28;45499;-63
2023/02/14 05:18:21;;;;;;;;;90.75;80.25;;;;;;;;5002065;28;45521;-62
2023/02/14 05:20:50;;;;;;;;;89.25;70.00;;;;;;;;5003984;28;45580;-62
2023/02/14 05:23:15;;;;;;;;;87.50;71.00;;;;;;;;4998602;28;45458;-62
2023/02/14 05:25:41;;;;;;;;;91.25;70.75;;;;;;;;5007978;28;45528;-63
2023/02/14 05:28:06;;;;;;;;;86.25;69.25;;;;;;;;4999200;28;45355;-63
2023/02/14 05:30:31;;;;;;;;;91.25;71.50;;;;;;;;4999424;28;45537;-62
2023/02/14 05:32:57;;;;;;;;;87.75;72.00;;;;;;;;4998855;28;45814;-63
2023/02/14 05:35:22;;;;;;;;;85.25;69.00;;;;;;;;5004111;28;45301;-63
2023/02/14 05:37:47;;;;;;;;;85.75;71.25;;;;;;;;5001429;28;45696;-63
2023/02/14 05:40:15;;;;;;;;;79.25;61.25;;;;;;;;5011029;28;45692;-63
2023/02/14 05:42:40;;;;;;;;;85.75;71.50;;;;;;;;4999691;28;45511;-62
2023/02/14 05:45:05;;;;;;;;;87.50;62.75;;;;;;;;4995460;28;45854;-63
2023/02/14 05:47:31;;;;;;;;;88.75;66.00;;;;;;;;4999451;28;45307;-62
2023/02/14 05:49:56;;;;;;;;;90.00;66.50;;;;;;;;5001090;28;45481;-63
2023/02/14 05:52:21;;;;;;;;;85.50;71.00;;;;;;;;5000564;28;45335;-63
2023/02/14 05:54:46;;;;;;;;;85.00;63.75;;;;;;;;5003043;28;45490;-63
2023/02/14 05:57:12;;;;;;;;;90.00;71.50;;;;;;;;5003112;28;45575;-62
2023/02/14 05:59:37;;;;;;;;;83.00;67.50;;;;;;;;5016834;28;45619;-62
2023/02/14 06:02:02;;;;;;;;;86.25;69.00;;;;;;;;5000020;28;46309;-62
2023/02/14 06:04:27;;;;;;;;;86.75;67.50;;;;;;;;4998517;28;45711;-63
2023/02/14 06:06:52;;;;;;;;;86.75;68.50;;;;;;;;5000157;28;46870;-62
2023/02/14 06:09:18;;;;;;;;;86.50;71.25;;;;;;;;4999065;28;45346;-62
2023/02/14 06:11:43;;;;;;;;;85.75;70.25;;;;;;;;4998636;28;45344;-62
2023/02/14 06:14:09;;;;;;;;;88.00;67.50;;;;;;;;4998118;28;45752;-62
2023/02/14 06:16:34;;;;;;;;;85.00;63.00;;;;;;;;5000002;28;45369;-62
2023/02/14 06:18:59;;;;;;;;;82.75;63.00;;;;;;;;4998037;28;45542;-61
2023/02/14 06:21:24;;;;;;;;;90.75;68.75;;;;;;;;4998904;28;45379;-63
2023/02/14 06:23:49;;;;;;;;;85.25;67.00;;;;;;;;5001937;28;45314;-62
2023/02/14 06:26:15;;;;;;;;;86.00;62.00;;;;;;;;5004844;28;45915;-62
2023/02/14 06:28:41;;;;;;;;;83.75;65.00;;;;;;;;4998460;28;45621;-63
2023/02/14 06:31:06;;;;;;;;;81.00;66.75;;;;;;;;5001259;28;46178;-63
2023/02/14 06:33:31;;;;;;;;;88.25;63.50;;;;;;;;4994833;28;45415;-62
2023/02/14 06:35:57;;;;;;;;;82.75;65.25;;;;;;;;4998841;28;45502;-63
2023/02/14 06:38:22;;;;;;;;;88.75;70.50;;;;;;;;5007190;28;45361;-64
2023/02/14 06:40:47;;;;;;;;;86.50;67.00;;;;;;;;5000881;28;45661;-64
2023/02/14 06:43:12;;;;;;;;;89.25;70.25;;;;;;;;4996583;28;45739;-65
2023/02/14 06:45:37;;;;;;;;;85.25;63.25;;;;;;;;4997556;28;45470;-64
2023/02/14 06:48:03;;;;;;;;;87.00;68.50;;;;;;;;4998094;28;45482;-64
2023/02/14 06:50:28;;;;;;;;;87.50;67.00;;;;;;;;4994973;28;46020;-65
2023/02/14 06:52:53;;;;;;;;;82.00;64.00;;;;;;;;5001742;28;45449;-64
2023/02/14 06:55:19;;;;;;;;;83.75;63.75;;;;;;;;5003702;28;45460;-65
2023/02/14 06:57:44;;;;;;;;;80.75;62.00;;;;;;;;4999170;28;45799;-64
2023/02/14 07:00:10;;;;;;;;;86.25;63.00;;;;;;;;4996175;28;46032;-63
2023/02/14 07:02:35;;;;;;;;;79.25;60.25;;;;;;;;5000625;28;45763;-64
2023/02/14 07:05:00;;;;;;;;;88.75;67.25;;;;;;;;5008159;28;45439;-63
2023/02/14 07:07:25;;;;;;;;;90.25;74.25;;;;;;;;5003134;28;45520;-64
2023/02/14 07:09:50;;;;;;;;;81.75;60.00;;;;;;;;5004288;28;45722;-64
2023/02/14 07:12:16;;;;;;;;;82.50;66.00;;;;;;;;4997792;28;45457;-65
2023/02/14 07:14:41;;;;;;;;;79.00;60.50;;;;;;;;4998694;28;45517;-64
2023/02/14 07:17:06;;;;;;;;;86.25;67.00;;;;;;;;5001046;28;45598;-63
2023/02/14 07:19:31;;;;;;;;;83.25;67.00;;;;;;;;4997239;28;46418;-64
2023/02/14 07:21:56;;;;;;;;;91.50;69.75;;;;;;;;4999707;28;45415;-63
2023/02/14 07:24:22;;;;;;;;;89.50;75.00;;;;;;;;4999355;28;45453;-63
2023/02/14 07:26:47;;;;;;;;;90.50;68.00;;;;;;;;5001000;28;45434;-63
2023/02/14 07:29:12;;;;;;;;;96.50;74.25;;;;;;;;5004452;28;45344;-63
2023/02/14 07:31:37;;;;;;;;;88.75;72.25;;;;;;;;5004032;28;45576;-63
2023/02/14 07:34:02;;;;;;;;;91.25;71.00;;;;;;;;5007659;28;45486;-64
2023/02/14 07:36:28;;;;;;;;;90.00;77.75;;;;;;;;5003004;28;45424;-64
2023/02/14 07:38:54;;;;;;;;;95.25;79.25;;;;;;;;4998273;28;45449;-66
2023/02/14 07:41:19;;;;;;;;;92.00;75.00;;;;;;;;5003869;28;46844;-65
2023/02/14 07:43:44;;;;;;;;;94.00;77.75;;;;;;;;4999148;28;45386;-63
2023/02/14 07:46:10;;;;;;;;;103.25;90.75;;;;;;;;5009783;28;45464;-62
2023/02/14 07:48:35;;;;;;;;;100.25;81.75;;;;;;;;4999034;28;46115;-62
2023/02/14 07:51:00;;;;;;;;;104.00;87.25;;;;;;;;4999678;28;45459;-62
2023/02/14 07:53:26;;;;;;;;;99.75;86.50;;;;;;;;5006022;28;45419;-63
2023/02/14 07:55:51;;;;;;;;;100.75;89.75;;;;;;;;4999841;28;45934;-63
2023/02/14 07:58:16;;;;;;;;;105.00;87.50;;;;;;;;5008736;28;47057;-63
2023/02/14 08:00:42;;;;;;;;;102.50;83.00;;;;;;;;4992416;28;45486;-63
2023/02/14 08:03:07;;;;;;;;;102.50;83.75;;;;;;;;5007718;28;45288;-62
2023/02/14 08:05:32;;;;;;;;;92.50;77.00;;;;;;;;5000791;28;45807;-63
2023/02/14 08:07:58;;;;;;;;;92.50;78.25;;;;;;;;5002868;28;46979;-63
2023/02/14 08:10:23;;;;;;;;;100.25;84.50;;;;;;;;5001049;28;45280;-62
2023/02/14 08:12:57;;;;;;;;;95.00;81.75;;;;;;;;5001028;28;45437;-62
2023/02/14 08:18:07;;;;;;;;;95.75;74.75;;;;;;;;4998659;28;45896;-62
2023/02/14 08:20:32;;;;;;;;;85.00;64.75;;;;;;;;5000535;28;45346;-62
2023/02/14 08:22:57;;;;;;;;;88.75;72.00;;;;;;;;5003960;28;45406;-62
2023/02/14 08:25:22;;;;;;;;;98.50;77.25;;;;;;;;5000663;28;45450;-62
2023/02/14 08:27:48;;;;;;;;;85.75;65.50;;;;;;;;4997129;28;48244;-62
2023/02/14 08:30:13;;;;;;;;;89.50;77.50;;;;;;;;4999722;28;45852;-61
2023/02/14 08:32:38;;;;;;;;;88.00;77.00;;;;;;;;4993853;28;45429;-62
2023/02/14 08:35:04;;;;;;;;;90.75;75.00;;;;;;;;4999591;28;45464;-62
2023/02/14 08:37:29;;;;;;;;;94.00;77.50;;;;;;;;4999238;28;45363;-62
2023/02/14 08:39:54;;;;;;;;;91.50;75.25;;;;;;;;4996340;28;45432;-62
2023/02/14 08:42:19;;;;;;;;;94.50;81.50;;;;;;;;5000365;28;45536;-62
2023/02/14 08:44:44;;;;;;;;;93.75;76.75;;;;;;;;4993720;28;45312;-62
2023/02/14 08:47:10;;;;;;;;;95.75;79.00;;;;;;;;5008717;28;45558;-62
2023/02/14 08:49:35;;;;;;;;;90.50;76.00;;;;;;;;4993540;28;45637;-63
2023/02/14 08:52:00;;;;;;;;;91.50;72.50;;;;;;;;4988132;28;45685;-63
2023/02/14 08:54:25;;;;;;;;;88.25;72.25;;;;;;;;4999121;28;45410;-63
2023/02/14 08:56:50;;;;;;;;;90.25;77.00;;;;;;;;4995791;28;46426;-63
2023/02/14 08:59:16;;;;;;;;;93.75;77.50;;;;;;;;4998014;28;45462;-63
2023/02/14 09:01:41;;;;;;;;;97.75;77.25;;;;;;;;4996710;28;45299;-63
2023/02/14 09:04:06;;;;;;;;;90.50;78.75;;;;;;;;4999080;28;45391;-63
2023/02/14 09:06:32;;;;;;;;;91.50;80.50;;;;;;;;4997594;28;46641;-62
2023/02/14 09:08:57;;;;;;;;;96.00;79.25;;;;;;;;4998547;28;45608;-63
2023/02/14 09:11:23;;;;;;;;;88.75;74.50;;;;;;;;5005651;28;45525;-63
2023/02/14 09:13:49;;;;;;;;;91.25;78.00;;;;;;;;4992674;28;45435;-62
2023/02/14 09:16:18;;;;;;;;;99.00;83.50;;;;;;;;4997646;28;46136;-63
2023/02/14 09:18:44;;;;;;;;;100.50;85.00;;;;;;;;5001383;28;45563;-62
2023/02/14 09:21:12;;;;;;;;;104.50;87.25;;;;;;;;5002968;28;45632;-63
2023/02/14 09:23:37;;;;;;;;;96.25;84.75;;;;;;;;4997890;28;45547;-63
2023/02/14 09:26:04;;;;;;;;;105.00;86.50;;;;;;;;4990614;28;45766;-63
2023/02/14 09:28:29;;;;;;;;;104.75;91.00;;;;;;;;4995907;28;45380;-62
2023/02/14 09:30:54;;;;;;;;;94.50;81.50;;;;;;;;4995504;28;45710;-63
2023/02/14 09:33:19;;;;;;;;;94.00;81.25;;;;;;;;4997695;28;45456;-63
2023/02/14 09:35:44;;;;;;;;;94.50;82.50;;;;;;;;4994380;28;45541;-63
2023/02/14 09:38:10;;;;;;;;;108.00;92.75;;;;;;;;4998832;28;45320;-64
2023/02/14 09:40:35;;;;;;;;;118.50;96.75;;;;;;;;4993704;28;45863;-63
2023/02/14 09:43:19;;;;;;;;;105.25;93.75;;;;;;;;4994110;28;45378;-64
2023/02/14 09:45:50;;;;;;;;;107.50;90.75;;;;;;;;4993334;28;45678;-64
2023/02/14 09:48:18;;;;;;;;;106.25;91.75;;;;;;;;4999083;28;45942;-64
2023/02/14 09:51:02;;;;;;;;;113.25;96.50;;;;;;;;4998445;28;45683;-62
2023/02/14 09:53:35;;;;;;;;;115.25;96.25;;;;;;;;5012297;28;45502;-63
2023/02/14 09:56:15;;;;;;;;;126.00;105.50;;;;;;;;4992934;28;46069;-63
2023/02/14 09:58:41;;;;;;;;;118.75;101.00;;;;;;;;4998041;28;45741;-63
2023/02/14 10:01:09;;;;;;;;;120.75;108.50;;;;;;;;4995952;28;45426;-63
2023/02/14 10:03:57;;;;;;;;;117.75;109.50;;;;;;;;4993261;28;45725;-64
2023/02/14 10:06:28;;;;;;;;;117.00;105.75;;;;;;;;5001506;28;45587;-64
2023/02/14 10:09:10;;;;;;;;;115.25;103.25;;;;;;;;4997932;28;45436;-64
2023/02/14 10:11:36;;;;;;;;;119.00;102.75;;;;;;;;4994939;28;45473;-63
2023/02/14 10:14:08;;;;;;;;;111.50;95.75;;;;;;;;4999606;28;45359;-63
2023/02/14 10:16:39;;;;;;;;;108.25;97.50;;;;;;;;4997705;28;46212;-63
2023/02/14 10:19:12;;;;;;;;;107.75;96.50;;;;;;;;4993554;28;45466;-63
2023/02/14 10:21:37;;;;;;;;;103.75;95.00;;;;;;;;4995205;28;45414;-63
2023/02/14 10:24:09;;;;;;;;;90.00;85.75;;;;;;;;4998276;28;45351;-64
2023/02/14 10:26:40;;;;;;;;;107.25;99.25;;;;;;;;4997589;28;45517;-64
2023/02/14 10:29:06;;;;;;;;;95.75;85.75;;;;;;;;4998088;28;45517;-64
2023/02/14 10:31:31;;;;;;;;;101.25;87.75;;;;;;;;4996258;28;45744;-64
2023/02/14 10:34:02;;;;;;;;;107.75;94.00;;;;;;;;4996551;28;45260;-64
2023/02/14 10:36:49;;;;;;;;;91.25;85.25;;;;;;;;4997199;28;45400;-64
2023/02/14 10:39:38;;;;;;;;;87.00;80.00;;;;;;;;4995784;28;45352;-64
2023/02/14 10:42:09;;;;;;;;;86.25;78.50;;;;;;;;4985306;28;46606;-64
2023/02/14 10:44:47;;;;;;;;;86.50;78.50;;;;;;;;4992376;28;45412;-64
2023/02/14 10:47:24;;;;;;;;;92.75;87.25;;;;;;;;4988072;28;45764;-64
2023/02/14 10:49:55;;;;;;;;;97.25;81.00;;;;;;;;4996097;28;45693;-64
2023/02/14 10:52:21;;;;;;;;;90.00;80.25;;;;;;;;4987196;28;45725;-64
2023/02/14 10:54:55;;;;;;;;;86.75;82.25;;;;;;;;4994020;28;45775;-64
2023/02/14 10:57:29;;;;;;;;;86.75;80.00;;;;;;;;4987096;28;45616;-65
2023/02/14 11:00:04;;;;;;;;;94.50;85.75;;;;;;;;4992772;28;45461;-65
2023/02/14 11:02:31;;;;;;;;;88.75;80.00;;;;;;;;4991124;28;45471;-65
2023/02/14 11:04:57;;;;;;;;;95.25;86.00;;;;;;;;4991750;28;45354;-64
2023/02/14 11:07:22;;;;;;;;;80.50;74.75;;;;;;;;4997590;28;45385;-64
2023/02/14 11:09:48;;;;;;;;;92.50;83.50;;;;;;;;4997154;28;45684;-65
2023/02/14 11:12:30;;;;;;;;;85.25;79.75;;;;;;;;4995920;28;45565;-64
2023/02/14 11:15:07;;;;;;;;;89.50;80.00;;;;;;;;4998208;28;45451;-64
2023/02/14 11:17:34;;;;;;;;;91.00;81.75;;;;;;;;4999157;28;46254;-64
2023/02/14 11:20:19;;;;;;;;;83.00;75.25;;;;;;;;5000815;28;45441;-63
2023/02/14 11:22:44;;;;;;;;;79.25;71.25;;;;;;;;4998689;28;45452;-64
2023/02/14 11:25:23;;;;;;;;;89.25;81.75;;;;;;;;5001481;28;45848;-64
2023/02/14 11:28:09;;;;;;;;;84.25;80.75;;;;;;;;5000613;28;45610;-64
2023/02/14 11:30:39;;;;;;;;;91.25;82.50;;;;;;;;4995642;28;45663;-64
2023/02/14 11:33:05;;;;;;;;;81.00;74.25;;;;;;;;4999269;28;45498;-64
2023/02/14 11:35:34;;;;;;;;;90.75;81.75;;;;;;;;4999425;28;45425;-64
2023/02/14 11:38:00;;;;;;;;;90.50;80.25;;;;;;;;5001081;28;46109;-63
2023/02/14 11:40:26;;;;;;;;;89.50;81.00;;;;;;;;5001102;28;45341;-63
2023/02/14 11:42:51;;;;;;;;;91.25;79.50;;;;;;;;4999675;28;45597;-63
2023/02/14 11:45:36;;;;;;;;;87.00;81.75;;;;;;;;4999554;28;45406;-64
2023/02/14 11:48:09;;;;;;;;;88.25;78.75;;;;;;;;4994156;28;46980;-63
2023/02/14 11:50:35;;;;;;;;;88.25;80.50;;;;;;;;4993395;28;45343;-64
2023/02/14 11:53:00;;;;;;;;;81.75;70.50;;;;;;;;5000166;28;45323;-64
2023/02/14 11:55:31;;;;;;;;;86.75;81.50;;;;;;;;4999461;28;45296;-64
2023/02/14 11:57:57;;;;;;;;;80.00;74.75;;;;;;;;4995151;28;46340;-65
2023/02/14 12:00:25;;;;;;;;;81.00;72.00;;;;;;;;4999589;28;45513;-63
2023/02/14 12:02:51;;;;;;;;;77.50;70.00;;;;;;;;4990270;28;45296;-64
2023/02/14 12:05:30;;;;;;;;;73.25;63.75;;;;;;;;5001210;28;45740;-64
2023/02/14 12:07:57;;;;;;;;;75.00;63.50;;;;;;;;5000161;28;45427;-64
2023/02/14 12:10:22;;;;;;;;;72.50;62.50;;;;;;;;4991295;28;45479;-64
2023/02/14 12:12:52;;;;;;;;;77.50;64.75;;;;;;;;4988427;28;45628;-64
2023/02/14 12:15:24;;;;;;;;;70.75;56.25;;;;;;;;4995969;28;45513;-64
2023/02/14 12:17:52;;;;;;;;;66.50;53.25;;;;;;;;4993322;28;46664;-65
2023/02/14 12:20:33;;;;;;;;;67.00;53.00;;;;;;;;4994126;28;45488;-64
2023/02/14 12:23:03;;;;;;;;;71.00;57.00;;;;;;;;4994502;28;45432;-64
2023/02/14 12:25:55;;;;;;;;;66.50;53.00;;;;;;;;4999645;28;45667;-64
2023/02/14 12:28:29;;;;;;;;;64.00;48.00;;;;;;;;4998788;28;45545;-64
2023/02/14 12:30:54;;;;;;;;;67.00;51.33;;;;;;;;4993612;28;45366;-64
2023/02/14 12:33:21;;;;;;;;;64.33;51.00;;;;;;;;4998201;28;45590;-64
2023/02/14 12:35:53;;;;;;;;;70.00;53.25;;;;;;;;4989773;28;45477;-64
2023/02/14 12:38:29;;;;;;;;;67.00;52.00;;;;;;;;4995568;28;45391;-63
2023/02/14 12:41:17;;;;;;;;;66.33;51.67;;;;;;;;4996988;28;45460;-64
2023/02/14 12:43:54;;;;;;;;;65.75;52.25;;;;;;;;4995184;28;45439;-64
2023/02/14 12:46:25;;;;;;;;;66.00;52.67;;;;;;;;4997321;28;45406;-64
2023/02/14 12:48:50;;;;;;;;;66.00;52.67;;;;;;;;4999042;28;45340;-64
2023/02/14 12:51:24;;;;;;;;;65.75;52.50;;;;;;;;4999605;28;45306;-64
2023/02/14 12:53:59;;;;;;;;;67.75;54.50;;;;;;;;4997462;28;45549;-65
2023/02/14 12:56:24;;;;;;;;;64.50;51.75;;;;;;;;4999824;28;45554;-64
2023/02/14 12:59:08;;;;;;;;;67.75;53.25;;;;;;;;4985923;28;45541;-64
2023/02/14 13:01:54;;;;;;;;;65.75;51.25;;;;;;;;4991717;28;45480;-64
2023/02/14 13:04:58;;;;;;;;;67.50;51.75;;;;;;;;4985547;28;45423;-63
2023/02/14 13:07:26;;;;;;;;;62.33;50.33;;;;;;;;4986852;28;45614;-64
2023/02/14 13:10:03;;;;;;;;;67.75;52.25;;;;;;;;4989615;28;46194;-63
2023/02/14 13:12:29;;;;;;;;;64.00;51.67;;;;;;;;4983567;28;45343;-63
2023/02/14 13:15:17;;;;;;;;;68.00;52.33;;;;;;;;4997315;28;45324;-63
2023/02/14 13:17:45;;;;;;;;;63.50;50.00;;;;;;;;4998900;28;45523;-63
2023/02/14 13:20:23;;;;;;;;;65.33;50.67;;;;;;;;4997053;28;45406;-63
2023/02/14 13:22:49;;;;;;;;;63.67;51.00;;;;;;;;4998451;28;45530;-64
2023/02/14 13:25:23;;;;;;;;;62.33;48.33;;;;;;;;4998612;28;45427;-64
2023/02/14 13:27:48;;;;;;;;;57.00;46.33;;;;;;;;4994318;28;45443;-64
2023/02/14 13:30:26;;;;;;;;;63.67;49.67;;;;;;;;4986449;28;46794;-63
2023/02/14 13:32:52;;;;;;;;;64.00;50.00;;;;;;;;4994971;28;45324;-63
2023/02/14 13:35:18;;;;;;;;;61.50;50.25;;;;;;;;4997927;28;45411;-63
2023/02/14 13:37:51;;;;;;;;;64.00;50.25;;;;;;;;4996967;28;45318;-63
2023/02/14 13:40:17;;;;;;;;;61.25;48.00;;;;;;;;4996106;28;46327;-63
2023/02/14 13:42:45;;;;;;;;;62.00;48.25;;;;;;;;4996503;28;45455;-63
2023/02/14 13:45:36;;;;;;;;;63.33;49.67;;;;;;;;4991926;28;45592;-64
2023/02/14 13:48:04;;;;;;;;;60.00;47.67;;;;;;;;4992771;28;45432;-64
2023/02/14 13:50:31;;;;;;;;;63.00;48.00;;;;;;;;4998264;28;46172;-64
2023/02/14 13:52:57;;;;;;;;;60.33;48.00;;;;;;;;4997642;28;45479;-64
2023/02/14 13:55:24;;;;;;;;;58.00;45.67;;;;;;;;5004223;28;45339;-63
2023/02/14 13:58:23;;;;;;;;;62.67;46.67;;;;;;;;4998606;28;45494;-64
2023/02/14 14:00:49;;;;;;;;;59.33;46.67;;;;;;;;4991527;28;46070;-64
2023/02/14 14:03:35;;;;;;;;;59.67;47.33;;;;;;;;4999190;28;45339;-63
2023/02/14 14:06:03;;;;;;;;;59.75;48.75;;;;;;;;5002170;28;46065;-63
2023/02/14 14:08:30;;;;;;;;;59.00;46.67;;;;;;;;5007840;28;45414;-63
2023/02/14 14:10:58;;;;;;;;;58.67;47.67;;;;;;;;4998428;28;46090;-64
2023/02/14 14:13:38;;;;;;;;;66.00;50.50;;;;;;;;4997332;28;45518;-64
2023/02/14 14:16:22;;;;;;;;;64.75;50.25;;;;;;;;5000289;28;45876;-65
2023/02/14 14:18:47;;;;;;;;;60.33;46.67;;;;;;;;4997625;28;45731;-63
2023/02/14 14:21:14;;;;;;;;;57.00;47.00;;;;;;;;4998731;28;46034;-63
2023/02/14 14:23:39;;;;;;;;;57.00;44.67;;;;;;;;4999323;28;45398;-63
2023/02/14 14:26:23;;;;;;;;;62.00;45.75;;;;;;;;4999088;28;45417;-64
2023/02/14 14:28:49;;;;;;;;;62.25;47.75;;;;;;;;5005196;28;45446;-63
2023/02/14 14:31:18;;;;;;;;;61.50;46.50;;;;;;;;5003518;28;45987;-64
2023/02/14 14:33:43;;;;;;;;;53.00;44.33;;;;;;;;4995169;28;45381;-63
2023/02/14 14:36:10;;;;;;;;;54.67;44.00;;;;;;;;5002967;28;45494;-63
2023/02/14 14:38:45;;;;;;;;;57.00;43.67;;;;;;;;4994301;28;45387;-63
2023/02/14 14:41:10;;;;;;;;;52.67;43.00;;;;;;;;4992299;28;45447;-64
2023/02/14 14:43:38;;;;;;;;;56.33;43.67;;;;;;;;4986251;28;45490;-64
2023/02/14 14:46:06;;;;;;;;;55.33;41.67;;;;;;;;4987371;28;45478;-64
2023/02/14 14:48:35;;;;;;;;;51.33;43.33;;;;;;;;4988235;28;45618;-64
2023/02/14 14:51:02;;;;;;;;;56.67;45.67;;;;;;;;4996560;28;45832;-64
2023/02/14 14:53:30;;;;;;;;;58.33;45.00;;;;;;;;5000882;28;45797;-64
2023/02/14 14:55:55;;;;;;;;;55.67;44.33;;;;;;;;5005371;28;45431;-63
2023/02/14 14:58:35;;;;;;;;;61.67;48.00;;;;;;;;4995747;28;45934;-64
2023/02/14 15:01:00;;;;;;;;;56.33;43.67;;;;;;;;5004589;28;46324;-64
2023/02/14 15:03:27;;;;;;;;;58.50;47.25;;;;;;;;4996351;28;45435;-64
2023/02/14 15:06:02;;;;;;;;;61.25;44.75;;;;;;;;4999552;28;45697;-64
2023/02/14 15:08:31;;;;;;;;;58.75;46.25;;;;;;;;4989879;28;45538;-65
2023/02/14 15:10:59;;;;;;;;;54.00;44.00;;;;;;;;4992931;28;45429;-65
2023/02/14 15:13:48;;;;;;;;;59.00;46.75;;;;;;;;5002735;28;45505;-64
2023/02/14 15:16:17;;;;;;;;;59.50;46.50;;;;;;;;4994903;28;45625;-65
2023/02/14 15:18:42;;;;;;;;;58.25;44.75;;;;;;;;4995236;28;45455;-65
2023/02/14 15:21:08;;;;;;;;;65.25;49.25;;;;;;;;4997118;28;45761;-64
2023/02/14 15:23:33;;;;;;;;;60.50;47.50;;;;;;;;5000731;28;45359;-64
2023/02/14 15:25:59;;;;;;;;;58.25;45.50;;;;;;;;4998170;28;45419;-64
2023/02/14 15:28:33;;;;;;;;;57.75;46.50;;;;;;;;4996679;28;45372;-64
2023/02/14 15:31:00;;;;;;;;;58.25;44.50;;;;;;;;5000373;28;47343;-64
2023/02/14 15:33:25;;;;;;;;;52.67;44.67;;;;;;;;4995661;28;45465;-64
2023/02/14 15:35:51;;;;;;;;;58.67;46.67;;;;;;;;4998574;28;45430;-64
2023/02/14 15:38:16;;;;;;;;;60.25;47.75;;;;;;;;4996029;28;45469;-64
2023/02/14 15:40:42;;;;;;;;;55.50;46.25;;;;;;;;5000302;28;45996;-64
2023/02/14 15:43:23;;;;;;;;;58.67;45.33;;;;;;;;4993597;28;45510;-64
2023/02/14 15:45:55;;;;;;;;;60.25;47.25;;;;;;;;4991856;28;45530;-64
2023/02/14 15:48:29;;;;;;;;;63.25;49.75;;;;;;;;5004305;28;45826;-65
2023/02/14 15:50:57;;;;;;;;;62.50;48.25;;;;;;;;5002034;28;47131;-64
2023/02/14 15:53:28;;;;;;;;;61.75;48.50;;;;;;;;4997202;28;45760;-64
2023/02/14 15:56:00;;;;;;;;;57.00;44.75;;;;;;;;4995906;28;45581;-64
2023/02/14 15:58:28;;;;;;;;;52.67;43.67;;;;;;;;4988997;28;45573;-65
2023/02/14 16:00:54;;;;;;;;;51.50;41.50;;;;;;;;4999847;28;45710;-65
2023/02/14 16:03:23;;;;;;;;;60.00;48.25;;;;;;;;5003636;28;45431;-65
2023/02/14 16:05:49;;;;;;;;;59.75;47.00;;;;;;;;5012051;28;45495;-65
2023/02/14 16:08:27;;;;;;;;;61.00;49.25;;;;;;;;5001152;28;45495;-65
2023/02/14 16:11:02;;;;;;;;;61.50;48.50;;;;;;;;4995963;28;47778;-65
2023/02/14 16:13:31;;;;;;;;;63.75;48.75;;;;;;;;5000096;28;45496;-65
2023/02/14 16:15:57;;;;;;;;;64.50;51.75;;;;;;;;5000294;28;45505;-65
2023/02/14 16:18:41;;;;;;;;;61.25;48.75;;;;;;;;4989335;28;45438;-64
2023/02/14 16:21:09;;;;;;;;;69.25;51.50;;;;;;;;5000767;28;46715;-64
2023/02/14 16:23:36;;;;;;;;;60.75;48.50;;;;;;;;5001868;28;45498;-64
2023/02/14 16:26:01;;;;;;;;;67.25;50.25;;;;;;;;5006368;28;45472;-64
2023/02/14 16:28:28;;;;;;;;;67.25;53.50;;;;;;;;4999694;28;45361;-65
2023/02/14 16:30:54;;;;;;;;;66.00;49.25;;;;;;;;4998419;28;46258;-64
2023/02/14 16:33:22;;;;;;;;;73.50;54.25;;;;;;;;4995242;28;45717;-64
2023/02/14 16:35:47;;;;;;;;;68.75;52.25;;;;;;;;4990577;28;45854;-65
2023/02/14 16:38:15;;;;;;;;;60.25;47.75;;;;;;;;4994880;28;45331;-65
2023/02/14 16:40:41;;;;;;;;;70.00;51.50;;;;;;;;4995606;28;46188;-65
2023/02/14 16:43:10;;;;;;;;;65.25;51.00;;;;;;;;4993787;28;45483;-65
2023/02/14 16:45:35;;;;;;;;;67.25;53.00;;;;;;;;4992401;28;45494;-64
2023/02/14 16:48:01;;;;;;;;;64.75;48.50;;;;;;;;4992485;28;45576;-65
2023/02/14 16:50:26;;;;;;;;;64.75;53.00;;;;;;;;4997868;28;46118;-65
2023/02/14 16:52:54;;;;;;;;;67.50;51.25;;;;;;;;4993599;28;46088;-65
2023/02/14 16:55:20;;;;;;;;;69.50;53.75;;;;;;;;5005307;28;45436;-65
2023/02/14 16:57:46;;;;;;;;;70.00;52.00;;;;;;;;5002886;28;45623;-64
2023/02/14 17:00:12;;;;;;;;;62.75;49.00;;;;;;;;5003784;28;46247;-65
2023/02/14 17:02:37;;;;;;;;;65.25;52.25;;;;;;;;4989233;28;45394;-65
2023/02/14 17:05:03;;;;;;;;;66.25;52.00;;;;;;;;5005463;28;45418;-65
2023/02/14 17:07:30;;;;;;;;;68.50;51.00;;;;;;;;5004269;28;45880;-65
2023/02/14 17:09:58;;;;;;;;;65.75;51.50;;;;;;;;4999986;28;46394;-66
2023/02/14 17:12:27;;;;;;;;;62.75;50.25;;;;;;;;4994271;28;45477;-65
2023/02/14 17:14:53;;;;;;;;;61.75;48.00;;;;;;;;5006634;28;45562;-66
2023/02/14 17:17:18;;;;;;;;;69.75;53.75;;;;;;;;4998889;28;45609;-67
2023/02/14 17:19:44;;;;;;;;;67.00;52.50;;;;;;;;4998850;28;46160;-66
2023/02/14 17:22:12;;;;;;;;;68.25;55.00;;;;;;;;4994310;28;45453;-67
2023/02/14 17:24:37;;;;;;;;;69.75;53.75;;;;;;;;4995490;28;45424;-66
2023/02/14 17:27:02;;;;;;;;;63.25;49.75;;;;;;;;4998363;28;45443;-66
2023/02/14 17:29:27;;;;;;;;;63.75;49.50;;;;;;;;4999445;28;45450;-67
2023/02/14 17:31:53;;;;;;;;;67.00;51.75;;;;;;;;5002461;28;45473;-66
2023/02/14 17:34:18;;;;;;;;;70.25;54.00;;;;;;;;4998073;28;45380;-66
2023/02/14 17:36:43;;;;;;;;;64.25;52.25;;;;;;;;4995913;28;45402;-68
2023/02/14 17:39:08;;;;;;;;;67.00;52.75;;;;;;;;4989181;28;47061;-67
2023/02/14 17:41:34;;;;;;;;;64.25;49.75;;;;;;;;4998073;28;45440;-66
2023/02/14 17:43:59;;;;;;;;;62.50;49.25;;;;;;;;5000198;28;45431;-66
2023/02/14 17:46:26;;;;;;;;;60.50;48.25;;;;;;;;5000064;28;45522;-67
2023/02/14 17:48:51;;;;;;;;;67.25;53.00;;;;;;;;4988594;28;46904;-68
2023/02/14 17:51:19;;;;;;;;;65.00;52.00;;;;;;;;4995688;28;45489;-68
2023/02/14 17:53:44;;;;;;;;;63.50;50.00;;;;;;;;4991232;28;45475;-67
2023/02/14 17:56:11;;;;;;;;;69.25;54.25;;;;;;;;4998480;28;45514;-68
2023/02/14 17:58:36;;;;;;;;;64.75;50.50;;;;;;;;4993680;28;45718;-67
2023/02/14 18:01:03;;;;;;;;;63.00;50.25;;;;;;;;5001151;28;45379;-67
2023/02/14 18:03:28;;;;;;;;;66.00;50.50;;;;;;;;4995402;28;46741;-67
2023/02/14 18:05:56;;;;;;;;;65.25;51.75;;;;;;;;4996915;28;45297;-68
2023/02/14 18:08:22;;;;;;;;;66.00;50.00;;;;;;;;4998479;28;48193;-65
2023/02/14 18:10:47;;;;;;;;;65.25;50.75;;;;;;;;4993402;28;45539;-65
2023/02/14 18:13:12;;;;;;;;;67.00;52.25;;;;;;;;4991723;28;45466;-65
2023/02/14 18:15:37;;;;;;;;;60.75;47.75;;;;;;;;4994627;28;45558;-65
2023/02/14 18:18:02;;;;;;;;;63.25;49.25;;;;;;;;4992471;28;47847;-65
2023/02/14 18:20:28;;;;;;;;;69.75;53.00;;;;;;;;4997257;28;45398;-66
2023/02/14 18:22:53;;;;;;;;;63.50;50.50;;;;;;;;4991961;28;45723;-66
2023/02/14 18:25:18;;;;;;;;;69.25;52.25;;;;;;;;5001093;28;45621;-65
2023/02/14 18:27:44;;;;;;;;;65.75;52.50;;;;;;;;4995198;28;46091;-65
2023/02/14 18:30:09;;;;;;;;;63.00;50.75;;;;;;;;4997299;28;45582;-66
2023/02/14 18:32:34;;;;;;;;;60.50;50.25;;;;;;;;4996516;28;45521;-65
2023/02/14 18:35:00;;;;;;;;;64.50;50.00;;;;;;;;4995530;28;45584;-66
2023/02/14 18:37:25;;;;;;;;;66.00;50.50;;;;;;;;4998984;28;46293;-66
2023/02/14 18:39:50;;;;;;;;;67.75;51.75;;;;;;;;5000998;28;45467;-66
2023/02/14 18:42:15;;;;;;;;;61.50;48.50;;;;;;;;5001294;28;45823;-65
2023/02/14 18:44:40;;;;;;;;;62.50;47.75;;;;;;;;4996227;28;45817;-65
2023/02/14 18:47:06;;;;;;;;;64.75;50.50;;;;;;;;4997775;28;46153;-66
2023/02/14 18:49:31;;;;;;;;;66.00;51.25;;;;;;;;4996565;28;45415;-65
2023/02/14 18:51:57;;;;;;;;;65.50;53.00;;;;;;;;5003953;28;45520;-64
2023/02/14 18:54:23;;;;;;;;;64.00;49.75;;;;;;;;4997764;28;45584;-64
2023/02/14 18:56:48;;;;;;;;;60.75;49.50;;;;;;;;5005110;28;45272;-64